Providence, Rhode Island
Traffic Map
Current Weather Conditions
Providence, Rhode Island
Overcast Light Rain
Overcast
36°
Feels Like: 26°
Wind Chill: 26° Ceiling: 2300
Heat Index: 36° Visibility: 10mi
Dew Point: 32° Wind: 17mph
Humidity: 86% Direction: 50° (NE)
Pressure: 29.98in Gusts: 28mph
Raw Report DataKPVD 231251Z 05015G24KT 10SM -RA SCT013 BKN023 OVC037 02/00 A2998 RMK AO2 RAB43 SLP152 P0000 T00220000
Traffic Incident Summary
Active as of:
Severity:
Category:
InformationThere was an issue retrieving the traffic information for this location. Please try a different location or try again shortly.
Advertisements
Track Severe Weather on mobile